This is the latest recevied weather packets stored in our database for station/object HA5CD-6. If no packets are shown the sender has not sent any weather packets the latest 10 day(s).
| Time | Temp. | Humidity | Pressure | Rain* | Wind** | Luminosity | Snow |
|---|---|---|---|---|---|---|---|
| 1777717903 | 23.89° C | 27% | 1000 hPa | - | - | - | - |
| 1777717303 | 24.44° C | 26% | 1000 hPa | - | - | - | - |
| 1777716703 | 23.33° C | 27% | 1000 hPa | - | - | - | - |
| 1777716103 | 24.44° C | 27% | 1000 hPa | - | - | - | - |
| 1777715503 | 23.89° C | 27% | 1000 hPa | - | - | - | - |
| 1777714903 | 26.67° C | 24% | 1000 hPa | - | - | - | - |
| 1777714302 | 26.11° C | 25% | 1000 hPa | - | - | - | - |
| 1777713702 | 25.56° C | 25% | 1000 hPa | - | - | - | - |
| 1777713102 | 26.11° C | 25% | 1000 hPa | - | - | - | - |
| 1777712502 | 27.22° C | 25% | 1000 hPa | - | - | - | - |
| 1777711902 | 26.11° C | 25% | 1000 hPa | - | - | - | - |
| 1777711302 | 25.56° C | 25% | 1001 hPa | - | - | - | - |
| 1777710702 | 27.78° C | 23% | 1000 hPa | - | - | - | - |
| 1777710101 | 27.22° C | 24% | 1000 hPa | - | - | - | - |
| 1777709501 | 26.67° C | 24% | 1001 hPa | - | - | - | - |
| 1777708901 | 25.56° C | 26% | 1001 hPa | - | - | - | - |
| 1777708301 | 28.33° C | 23% | 1001 hPa | - | - | - | - |
| 1777707701 | 28.33° C | 22% | 1001 hPa | - | - | - | - |
| 1777707101 | 28.89° C | 22% | 1001 hPa | - | - | - | - |
| 1777706501 | 27.78° C | 24% | 1001 hPa | - | - | - | - |
| 1777705901 | 28.33° C | 23% | 1001 hPa | - | - | - | - |
| 1777705300 | 28.33° C | 23% | 1001 hPa | - | - | - | - |
| 1777704700 | 27.22° C | 24% | 1001 hPa | - | - | - | - |
| 1777704099 | 24.44° C | 26% | 1001 hPa | - | - | - | - |
| 1777703499 | 25° C | 26% | 1001 hPa | - | - | - | - |
* Rain since midnight (hover to see other rain measurements)
** Current wind speed in m/s (hover to see current wind gust speed)